juil
04

GP DE SUÈDE : GONCALVES ET NAGL EN PÔLES

youthstreamswedengpbanner09

WMX – Race 1 Classification
Pos Nr Rider Nat. Fed. Bike Time laps Diff. First Diff. Prev. Bestlaptime in lap Speed

1 110 Laier, Stephanie GER DMSB KTM 25:30.328 12 0:00.000 0:00.000 1:55.009 3 47.36
2 103 Franke, Maria GER DMSB Kawasaki 25:44.221 12 0:13.893 0:13.893 1:56.081 5 46.922
3 44 Kane, Nathalie IRL MCUI Suzuki 26:00.283 12 0:29.955 0:16.062 1:56.705 4 46.672
4 5 Mann, Elin SWE SVEMO KTM 26:03.478 12 0:33.150 0:03.195 1:56.343 4 46.817
5 4 Papenmeier, Larissa GER DMSB Suzuki 26:36.244 12 1:05.916 0:32.766 1:56.356 4 46.812
6 10 De Mol, Marielle NED KNMV Yamaha 26:39.162 12 1:08.834 0:02.918 2:00.933 4 45.04
7 275 Romlin, Marie SWE SML KTM 26:48.672 12 1:18.344 0:09.510 2:01.028 9 45.004
8 22 Petterson, Sara SWE SVEMO KTM 26:55.216 12 1:24.888 0:06.544 2:01.744 5 44.74
9 88 Fontanesi, Chiara ITA FMI Yamaha 26:56.509 12 1:26.181 0:01.293 2:01.415 9 44.861
10 90 Wagemans, Brenda BEL FMB KTM 26:56.936 12 1:26.608 0:00.427 2:01.885 5 44.688
11 89 De Winter, Elien BEL FMB Honda 27:14.261 12 1:43.933 0:17.325 2:02.548 5 44.446
12 39 Wilson, Kerry GBR ACU Kawasaki 27:15.010 12 1:44.682 0:00.749 2:00.769 3 45.101
13 20 Whitmore, Sarah USA MUL KTM 27:16.950 12 1:46.622 0:01.940 2:01.413 8 44.862
14 14 Adriansson, Sandra SWE SVEMO Kawasaki 27:19.842 12 1:49.514 0:02.892 2:01.404 9 44.865
15 27 Dunlop, Alix GBR ACU CCM 27:28.975 12 1:58.647 0:09.133 2:03.232 7 44.2
16 101 Seidenberg, Jenny GER DMSB KTM 27:29.525 12 1:59.197 0:00.550 2:04.471 12 43.76
17 111 Borchers, Anne GER DMSB Suzuki 27:31.159 12 2:00.831 0:01.634 2:02.138 8 44.595
18 46 van der Wekken, Britt NED KNMV Honda 27:33.671 12 2:03.343 0:02.512 2:03.246 9 44.195
19 24 Paull, Sophia GBR ACU Honda 25:36.798 11 1 lap(s) 1 lap(s) 2:04.908 4 43.606
20 116 Nocera, Francesca ITA FMI KTM 25:40.987 11 1 lap(s) 0:04.189 2:04.112 2 43.886
21 189 Millberg, Sanna SWE SVEMO Yamaha 25:42.244 11 1 lap(s) 0:01.257 2:06.406 11 43.09
22 36 de Barquin, Morane BEL MUL KTM 25:52.408 11 1 lap(s) 0:10.164 2:06.418 2 43.086
23 49 Parrini, Floriana ITA FMI Suzuki 26:05.543 11 1 lap(s) 0:13.135 2:06.283 3 43.132
24 42 Jonasson, Filippa SWE SVEMO KTM 26:09.251 11 1 lap(s) 0:03.708 2:03.691 5 44.036
25 43 Stefans, Signy ISL MSI Kawasaki 26:29.489 11 1 lap(s) 0:20.238 2:08.212 3 42.483
26 61 Klink, Nina NED KNMV Kawasaki 26:36.294 11 1 lap(s) 0:06.805 2:10.322 3 41.795
27 78 Rye-Holmboe, Katrine NOR NMF KTM 26:38.110 11 1 lap(s) 0:01.816 2:10.395 3 41.772
28 23 Segura Pereira, Carmen ESP RFME KTM 26:40.212 11 1 lap(s) 0:02.102 2:10.268 4 41.812
29 86 Verkade, Shirley NED KNMV KTM 26:41.994 11 1 lap(s) 0:01.782 2:08.552 3 42.37
30 77 Johansson, Sofia SWE SVEMO Suzuki 26:45.128 11 1 lap(s) 0:03.134 2:10.679 2 41.681
31 311 Haakenstad, Stine NOR NMF Honda 26:55.776 11 1 lap(s) 0:10.648 2:11.182 9 41.521
32 17 Kare, Petra SWE SVEMO Honda 27:02.130 11 1 lap(s) 0:06.354 2:10.531 3 41.728
33 66 Einarsdottir, Bryndis ISL MSI KTM 27:02.611 11 1 lap(s) 0:00.481 2:12.193 2 41.203
34 194 Vagle, Silje NOR NMF Kawasaki 27:04.982 11 1 lap(s) 0:02.371 2:12.514 4 41.104
35 102 Pillet, Florence SUI FMS KTM 27:26.703 11 1 lap(s) 0:21.721 2:11.798 4 41.327
36 115 Guryeva, Ekaterina RUS MFR Kawasaki 25:31.206 10 2 lap(s) 1 lap(s) 2:13.988 2 40.651
37 266 Askeland, Irene NOR NMF Honda 26:04.736 10 2 lap(s) 0:33.530 2:16.936 2 39.776
38 7 Veenstra, Marianne NED KNMV Suzuki 20:07.089 9 3 lap(s) 1 lap(s) 1:58.174 5 46.091
39 11 van Wordragen, Nicky NED KNMV KTM 22:37.635 6 6 lap(s) 3 lap(s) 2:01.410 5 44.863
40 12 Lewis, Megan GBR ACU Yamaha 7:22.745 2 10 lap(s) 4 lap(s) 2:20.884 1 38.662

MX1 – Qualifying Race Classification
Pos Nr Rider Nat. Fed. Bike Time laps Diff. First Diff. Prev. Bestlaptime in lap Speed

1 5 Nagl, Maximilian GER DMSB KTM 24:02.781 13 0:00.000 0:00.000 1:41.181 5 53.832
2 9 de Dycker, Ken BEL FMB Suzuki 24:07.217 13 0:04.436 0:04.436 1:41.115 5 53.867
3 6 Coppins, Joshua NZL MNZ Yamaha 24:08.281 13 0:05.500 0:01.064 1:42.169 3 53.312
4 222 Cairoli, Antonio ITA FMI Yamaha 24:08.784 13 0:06.003 0:00.503 1:39.847 12 54.551
5 8 Leok, Tanel EST EMF Yamaha 24:26.924 13 0:24.143 0:18.140 1:42.503 11 53.138
6 32 Priem, Manuel BEL FMB Aprilia 24:35.068 13 0:32.287 0:08.144 1:43.437 5 52.658
7 19 Philippaerts, David ITA FMI Yamaha 24:46.860 13 0:44.079 0:11.792 1:43.455 6 52.649
8 17 Swanepoel, Gareth RSA MSA Kawasaki 24:49.484 13 0:46.703 0:02.624 1:44.458 13 52.143
9 20 Aranda, Gregory FRA FFM Kawasaki 24:50.892 13 0:48.111 0:01.408 1:43.045 11 52.858
10 24 Church, Tom GBR ACU CCM 25:10.432 13 1:07.651 0:19.540 1:45.598 9 51.581
11 121 Mackenzie, Bryan GBR ACU Honda 25:12.953 13 1:10.172 0:02.521 1:46.115 9 51.329
12 12 Vuillemin, David FRA FFM Kawasaki 25:14.151 13 1:11.370 0:01.198 1:45.639 4 51.561
13 134 Norlen, Marcus SWE SVEMO Suzuki 25:16.657 13 1:13.876 0:02.506 1:45.749 9 51.507
14 115 Campano, Carlos ESP RFME Yamaha 25:18.664 13 1:15.883 0:02.007 1:45.821 10 51.472
15 210 Dahlgren, Jonathan SWE SVEMO Honda 25:20.294 13 1:17.513 0:01.630 1:45.930 8 51.419
16 46 Dougan, Jason GBR ACU CCM 25:20.777 13 1:17.996 0:00.483 1:46.080 8 51.346
17 45 Leonce, Loic FRA FFM Aprilia 25:21.289 13 1:18.508 0:00.512 1:45.640 3 51.56
18 33 Carlsson, Johan SWE SVEMO Suzuki 25:22.770 13 1:19.989 0:01.481 1:45.780 10 51.492
19 49 Akerblom, Mats SWE SVEMO Honda 25:23.009 13 1:20.228 0:00.239 1:46.396 11 51.194
20 89 Lindstrom, Kim SWE SVEMO KTM 25:25.863 13 1:23.082 0:02.854 1:46.277 11 51.251
21 25 Desalle, Clement BEL FMB Honda 25:31.578 13 1:28.797 0:05.715 1:43.825 6 52.461
22 74 Steinbergs, Ivo LAT LAMSF Honda 25:50.383 13 1:47.602 0:18.805 1:46.749 7 51.024
23 117 Söderström, Tom SWE SVEMO Kawasaki 24:45.032 12 1 lap(s) 1 lap(s) 1:45.744 5 51.509
24 23 Kempelis, Filips LAT LAMSF Honda 25:00.519 12 1 lap(s) 0:15.487 1:50.350 6 49.359
25 56 van Vijfeijken, Rob NED KNMV Yamaha 20:54.956 9 4 lap(s) 3 lap(s) 1:46.458 8 51.164
26 77 Terreblanche, Shannon RSA MSA Kawasaki 16:57.283 8 5 lap(s) 1 lap(s) 1:46.003 5 51.383
27 15 Bill, Julien SUI FMS Aprilia 8:30.192 3 10 lap(s) 5 lap(s) 1:46.614 2 51.089
28 111 Leok, Aigar EST EMF TM 1:54.085 0 13 lap(s) 3 lap(s) 0:00.000 0 0

MX2 – Qualifying Race Classification
Pos Nr Rider Nat. Fed. Bike Time laps Diff. First Diff. Prev. Bestlaptime in lap Speed

1 5 Goncalves, Rui POR FMP KTM 24:24.561 13 0:00.000 0:00.000 1:43.319 13 52.718
2 94 Roczen, Ken GER DMSB Suzuki 24:25.215 13 0:00.654 0:00.654 1:42.596 9 53.09
3 13 Monni, Manuel ITA FMI Yamaha 24:31.832 13 0:07.271 0:06.617 1:43.765 6 52.492
4 34 Roelants, Joel BEL FMB KTM 24:34.341 13 0:09.780 0:02.509 1:43.344 4 52.706
5 21 Paulin, Gautier FRA MCM Kawasaki 24:38.791 13 0:14.230 0:04.450 1:43.401 9 52.676
6 27 Schiffer, Marcus GER DMSB KTM 24:43.181 13 0:18.620 0:04.390 1:44.179 9 52.283
7 3 Aubin, Nicolas FRA FFM Yamaha 24:47.805 13 0:23.244 0:04.624 1:44.060 5 52.343
8 91 Karro, Matiss LAT LAMSF Suzuki 24:55.332 13 0:30.771 0:07.527 1:44.267 6 52.239
9 39 Guarneri, Davide ITA FMI Yamaha 24:56.272 13 0:31.711 0:00.940 1:44.927 6 51.91
10 335 Verbruggen, Dennis BEL FMB Honda 24:59.249 13 0:34.688 0:02.977 1:44.430 11 52.157
11 75 Triest, Nick BEL FMB KTM 25:02.791 13 0:38.230 0:03.542 1:45.314 4 51.72
12 56 Bobryshev, Evgeny RUS MFR Yamaha 25:05.438 13 0:40.877 0:02.647 1:44.091 6 52.327
13 45 Nicholls, Jake GBR ACU KTM 25:07.141 13 0:42.580 0:01.703 1:44.961 6 51.894
14 183 Frossard, Steven FRA FFM Kawasaki 25:08.847 13 0:44.286 0:01.706 1:45.032 9 51.858
15 175 Larsen, Nikolai DEN DMU Suzuki 25:11.689 13 0:47.128 0:02.842 1:45.097 6 51.826
16 119 Pocock, Mel GBR ACU Yamaha 25:20.010 13 0:55.449 0:08.321 1:45.475 6 51.641
17 152 Eriksson, Alex SWE SVEMO Suzuki 25:27.058 13 1:02.497 0:07.048 1:45.171 4 51.79
18 260 Nyegaard, Remi NOR NMF Honda 25:28.835 13 1:04.274 0:01.777 1:46.667 5 51.064
19 519 Rombaut, Loic FRA FFM Kawasaki 25:29.616 13 1:05.055 0:00.781 1:46.747 12 51.025
20 33 Soubeyras, Cedric FRA FFM Honda 25:30.499 13 1:05.938 0:00.883 1:46.429 12 51.178
21 30 Klein Kromhof, Ceriel NED KNMV KTM 25:38.886 13 1:14.325 0:08.387 1:47.505 4 50.666
22 131 Michek, Martin CZE ACCR TM 25:45.013 13 1:20.452 0:06.127 1:46.679 7 51.058
23 95 Justs, Augusts LAT LAMSF KTM 25:45.473 13 1:20.912 0:00.460 1:47.636 4 50.604
24 555 Graeme, Irwin GBR MCUI KTM 25:47.779 13 1:23.218 0:02.306 1:47.788 4 50.533
25 51 Smitka, Petr CZE ACCR KTM 25:48.263 13 1:23.702 0:00.484 1:46.510 7 51.139
26 14 Philippaerts, Deny ITA FMI Yamaha 25:48.571 13 1:24.010 0:00.308 1:47.798 4 50.528
27 89 van Horebeek, Jeremy BEL FMB KTM 25:49.009 13 1:24.448 0:00.438 1:45.734 6 51.514
28 17 Clermont, Jason FRA FFM Honda 25:58.426 13 1:33.865 0:09.417 1:47.594 5 50.624
29 73 Sandberg, Rickard SWE ACU Honda 26:01.186 13 1:36.625 0:02.760 1:48.674 8 50.121
30 153 Maddii, Marco ITA FMI Suzuki 26:01.827 13 1:37.266 0:00.641 1:49.232 11 49.865
31 44 Kojima, Yohei JPN MFJ Suzuki 26:17.480 13 1:52.919 0:15.653 1:47.157 8 50.83
32 28 Gultvedt, Andreas NOR NMF KTM 24:53.337 12 1 lap(s) 1 lap(s) 1:49.308 8 49.83
33 66 Pettersson, Anders SWE SVEMO KTM 25:23.280 12 1 lap(s) 0:29.943 1:51.878 3 48.685
34 912 Gundersen, Kenneth NOR NMF Yamaha 22:27.491 11 2 lap(s) 1 lap(s) 1:47.537 5 50.65
35 202 Larrieu, Loic FRA FFM Yamaha 22:45.044 10 3 lap(s) 1 lap(s) 1:47.003 7 50.903
36 22 Boissiere, Anthony FRA FFM KTM 9:55.142 4 9 lap(s) 6 lap(s) 1:48.737 2 50.092

youthstreammxsponso09

A voir aussi :

Le commentaires sont fermés.